createdAt,value
2022-10-08T00:01:45.329Z,971.81
2022-10-08T00:16:47.227Z,971.82
2022-10-08T00:31:49.134Z,971.71
2022-10-08T00:46:51.011Z,971.66
2022-10-08T01:01:52.922Z,971.69
2022-10-08T01:16:54.801Z,971.63
2022-10-08T01:31:56.641Z,971.73
2022-10-08T01:46:58.523Z,971.84
2022-10-08T02:02:00.433Z,972.03
2022-10-08T02:17:02.351Z,972.08
2022-10-08T02:32:04.242Z,972.24
2022-10-08T02:47:06.088Z,972.35
2022-10-08T03:02:08.086Z,972.5
2022-10-08T03:17:10.003Z,972.62
2022-10-08T03:32:11.904Z,972.78
2022-10-08T03:47:13.757Z,972.85
2022-10-08T04:02:15.703Z,972.89
2022-10-08T04:17:17.557Z,972.9
2022-10-08T04:32:19.391Z,973.01
2022-10-08T04:47:21.230Z,973.11
2022-10-08T05:02:23.739Z,973.12
2022-10-08T05:17:25.652Z,973.21
2022-10-08T05:32:27.520Z,973.28
2022-10-08T05:47:29.384Z,973.34
2022-10-08T06:02:31.243Z,973.45
2022-10-08T06:17:33.136Z,973.49
2022-10-08T06:32:35.017Z,973.49
2022-10-08T06:47:36.852Z,973.53
2022-10-08T07:02:38.814Z,973.65
2022-10-08T07:17:40.702Z,973.67
2022-10-08T07:32:42.542Z,973.66
2022-10-08T07:47:44.393Z,973.73
2022-10-08T08:02:46.521Z,973.67
2022-10-08T08:17:48.506Z,973.77
2022-10-08T08:32:50.511Z,973.83
2022-10-08T08:47:52.430Z,973.94
2022-10-08T09:02:54.286Z,974
2022-10-08T09:17:56.107Z,973.99
2022-10-08T09:32:57.935Z,973.96
2022-10-08T09:47:59.785Z,973.95
2022-10-08T10:03:01.644Z,973.97
2022-10-08T10:18:03.512Z,974
2022-10-08T10:33:05.333Z,974.07
2022-10-08T10:48:07.119Z,974.02
2022-10-08T11:03:08.989Z,974
2022-10-08T11:18:10.875Z,974.04
2022-10-08T11:33:12.697Z,974.06
2022-10-08T11:48:14.513Z,974.09
2022-10-08T12:03:16.411Z,974.11
2022-10-08T12:18:21.308Z,974.1
2022-10-08T12:33:25.558Z,974.1
2022-10-08T12:48:27.385Z,974.14
2022-10-08T13:03:29.209Z,974.07
2022-10-08T13:18:31.052Z,974.15
2022-10-08T13:33:32.902Z,974.13
2022-10-08T13:48:34.724Z,974.16
2022-10-08T14:03:36.575Z,974.14
2022-10-08T14:18:38.403Z,974.2
2022-10-08T14:33:40.215Z,974.25
2022-10-08T14:48:42.055Z,974.29
2022-10-08T15:03:43.929Z,974.3
2022-10-08T15:18:45.775Z,974.31
2022-10-08T15:33:47.572Z,974.31
2022-10-08T15:48:49.426Z,974.32
2022-10-08T16:03:51.251Z,974.37
2022-10-08T16:18:53.090Z,974.27
2022-10-08T16:33:54.914Z,974.15
2022-10-08T16:48:56.766Z,974.02
2022-10-08T17:03:58.571Z,973.95
2022-10-08T17:19:00.410Z,973.75
2022-10-08T17:34:02.254Z,973.59
2022-10-08T17:49:04.084Z,973.33
2022-10-08T18:04:05.944Z,973.13
2022-10-08T18:19:08.850Z,972.96
2022-10-08T18:34:10.923Z,972.81
2022-10-08T18:49:12.747Z,972.61
2022-10-08T19:04:14.592Z,972.41
2022-10-08T19:19:16.413Z,972.17
2022-10-08T19:34:18.286Z,971.97
2022-10-08T19:49:20.128Z,971.62
2022-10-08T20:04:21.991Z,971.37
2022-10-08T20:19:23.859Z,971.07
2022-10-08T20:34:25.687Z,970.76
2022-10-08T20:49:27.524Z,970.43
2022-10-08T21:04:29.377Z,970.22
2022-10-08T21:19:31.245Z,970.04
2022-10-08T21:34:33.067Z,969.8
2022-10-08T21:49:34.915Z,969.67
2022-10-08T22:04:36.732Z,969.53
2022-10-08T22:19:38.540Z,969.25
2022-10-08T22:34:40.374Z,969.12
2022-10-08T22:49:42.221Z,968.99
2022-10-08T23:04:44.054Z,968.86
2022-10-08T23:19:45.860Z,968.81
2022-10-08T23:34:47.707Z,968.75
2022-10-08T23:49:49.532Z,968.65
